Flugplatz Lübeck Blankensee

Prognose für EDHL

vom 22.09. um 17:00 UTC

Zwischen 18:00 UTC und 21:00 UTC

Wind 7 kt aus 80°

Sichtweite 10 km oder mehr

keine signifikanten Wettererscheinungen

keine Wolken


Zwischen 18:00 UTC und 21:00 UTC zeitweise

variable Windrichtung mit 3 kt

TAF EDHL 221700Z 2218/2221 08007KT CAVOK TEMPO 2218/2221 VRB03KT
Impressum